createdAt,value
2023-07-04T00:03:58.150Z,100.00
2023-07-04T00:09:19.145Z,100.00
2023-07-04T00:15:17.171Z,100.00
2023-07-04T00:21:33.621Z,100.00
2023-07-04T00:27:50.400Z,100.00
2023-07-04T01:23:55.824Z,100.00
2023-07-04T01:29:02.987Z,100.00
2023-07-04T01:34:06.286Z,100.00
2023-07-04T01:39:18.351Z,100.00
2023-07-04T01:44:20.200Z,100.00
2023-07-04T01:49:21.943Z,100.00
2023-07-04T01:54:23.686Z,100.00
2023-07-04T01:59:25.398Z,100.00
2023-07-04T02:04:27.053Z,100.00
2023-07-04T02:09:30.824Z,100.00
2023-07-04T02:14:32.554Z,100.00
2023-07-04T02:19:34.216Z,100.00
2023-07-04T02:24:35.990Z,100.00
2023-07-04T02:29:39.154Z,100.00
2023-07-04T02:34:40.832Z,100.00
2023-07-04T02:39:43.981Z,100.00
2023-07-04T02:44:46.176Z,100.00
2023-07-04T02:49:47.949Z,100.00
2023-07-04T02:54:50.571Z,100.00
2023-07-04T02:59:53.607Z,100.00
2023-07-04T03:04:55.586Z,100.00
2023-07-04T03:10:01.241Z,100.00
2023-07-04T03:15:08.196Z,100.00
2023-07-04T03:20:15.087Z,100.00
2023-07-04T03:25:19.872Z,100.00
2023-07-04T03:30:25.290Z,100.00
2023-07-04T03:35:31.753Z,100.00
2023-07-04T03:40:36.563Z,100.00
2023-07-04T03:45:38.301Z,100.00
2023-07-04T03:50:41.178Z,100.00
2023-07-04T03:55:42.850Z,100.00
2023-07-04T04:00:48.609Z,100.00
2023-07-04T04:05:50.513Z,100.00
2023-07-04T04:10:52.732Z,100.00
2023-07-04T04:15:55.114Z,100.00
2023-07-04T04:20:56.773Z,100.00
2023-07-04T04:25:59.041Z,100.00
2023-07-04T04:31:01.019Z,100.00
2023-07-04T04:36:03.672Z,100.00
2023-07-04T04:41:06.634Z,100.00
2023-07-04T04:46:08.303Z,100.00
2023-07-04T04:51:14.138Z,100.00
2023-07-04T04:56:16.480Z,100.00
2023-07-04T05:01:24.192Z,100.00
2023-07-04T05:06:28.054Z,100.00
2023-07-04T05:11:32.417Z,100.00
2023-07-04T05:16:34.050Z,100.00
2023-07-04T05:21:35.770Z,100.00
2023-07-04T05:26:38.798Z,100.00
2023-07-04T05:31:40.566Z,100.00
2023-07-04T05:36:42.362Z,100.00
2023-07-04T05:41:44.038Z,100.00
2023-07-04T05:46:45.700Z,100.00
2023-07-04T05:51:47.452Z,100.00
2023-07-04T05:56:53.408Z,100.00
2023-07-04T06:01:55.057Z,100.00
2023-07-04T06:06:56.669Z,100.00
2023-07-04T06:11:58.397Z,100.00
2023-07-04T06:17:02.252Z,100.00
2023-07-04T06:22:07.047Z,100.00
2023-07-04T06:27:09.132Z,100.00
2023-07-04T06:32:10.729Z,100.00
2023-07-04T06:37:12.306Z,100.00
2023-07-04T06:42:13.958Z,100.00
2023-07-04T06:47:18.031Z,100.00
2023-07-04T06:52:19.721Z,100.00
2023-07-04T06:57:21.938Z,100.00
2023-07-04T07:02:24.754Z,100.00
2023-07-04T07:07:26.938Z,100.00
2023-07-04T07:12:28.704Z,100.00
2023-07-04T07:17:30.368Z,100.00
2023-07-04T07:22:32.035Z,100.00
2023-07-04T07:27:33.971Z,100.00
2023-07-04T07:32:35.770Z,100.00
2023-07-04T07:37:38.537Z,100.00
2023-07-04T07:42:40.159Z,100.00
2023-07-04T07:47:41.902Z,100.00
2023-07-04T07:52:43.554Z,100.00
2023-07-04T07:57:45.150Z,100.00
2023-07-04T08:02:46.824Z,100.00
2023-07-04T08:07:48.437Z,100.00
2023-07-04T08:12:50.230Z,100.00
2023-07-04T08:17:51.920Z,100.00
2023-07-04T08:22:53.512Z,100.00
2023-07-04T08:27:55.443Z,100.00
2023-07-04T08:32:57.181Z,100.00
2023-07-04T08:37:59.152Z,100.00
2023-07-04T08:43:02.134Z,100.00
2023-07-04T08:48:04.450Z,100.00
2023-07-04T08:53:11.553Z,100.00
2023-07-04T08:58:16.860Z,100.00
2023-07-04T09:03:25.604Z,100.00
2023-07-04T09:09:00.765Z,100.00
2023-07-04T09:14:08.173Z,100.00
2023-07-04T09:19:11.926Z,100.00
2023-07-04T09:24:14.021Z,100.00
2023-07-04T09:29:18.732Z,100.00
2023-07-04T09:34:32.585Z,100.00
2023-07-04T09:39:55.724Z,100.00
2023-07-04T09:44:57.889Z,100.00
2023-07-04T09:50:32.440Z,100.00
2023-07-04T09:55:34.055Z,100.00
2023-07-04T10:00:35.836Z,100.00
2023-07-04T10:05:38.670Z,100.00
2023-07-04T10:10:55.204Z,100.00
2023-07-04T10:15:57.284Z,100.00
2023-07-04T10:21:02.051Z,100.00
2023-07-04T10:26:06.765Z,100.00
2023-07-04T10:31:15.702Z,100.00
2023-07-04T10:36:28.085Z,100.00
2023-07-04T10:41:39.107Z,100.00
2023-07-04T10:46:48.706Z,100.00
2023-07-04T10:51:58.000Z,100.00
2023-07-04T10:57:04.142Z,100.00
2023-07-04T11:02:14.778Z,100.00
2023-07-04T11:07:26.810Z,100.00
2023-07-04T11:12:30.403Z,100.00
2023-07-04T11:17:35.416Z,99.93
2023-07-04T11:23:03.108Z,98.41
2023-07-04T11:28:18.461Z,100.00
2023-07-04T11:33:42.447Z,97.43
2023-07-04T11:38:52.134Z,98.48
2023-07-04T11:43:56.102Z,95.65
2023-07-04T11:48:58.594Z,97.64
2023-07-04T11:54:02.410Z,94.94
2023-07-04T11:59:13.130Z,92.30
2023-07-04T12:04:14.884Z,96.29
2023-07-04T12:09:26.264Z,94.27
2023-07-04T12:14:29.403Z,96.97
2023-07-04T12:19:31.193Z,96.99
2023-07-04T12:24:34.830Z,97.34
2023-07-04T12:39:54.046Z,95.01
2023-07-04T12:44:56.307Z,99.33
2023-07-04T12:50:03.137Z,98.67
2023-07-04T12:55:08.098Z,95.87
2023-07-04T13:00:14.083Z,92.71
2023-07-04T13:05:17.487Z,93.22
2023-07-04T13:10:34.553Z,95.49
2023-07-04T13:15:37.468Z,93.37
2023-07-04T13:20:39.855Z,93.74
2023-07-04T13:25:44.266Z,94.17
2023-07-04T13:35:52.185Z,93.32
2023-07-04T13:40:54.013Z,91.78
2023-07-04T13:45:55.749Z,90.47
2023-07-04T13:50:57.425Z,92.60
2023-07-04T13:55:59.189Z,92.23
2023-07-04T14:06:06.988Z,91.08
2023-07-04T14:11:14.221Z,90.82
2023-07-04T14:16:37.396Z,96.50
2023-07-04T14:21:42.035Z,92.47
2023-07-04T14:26:43.729Z,94.33
2023-07-04T14:31:45.402Z,94.47
2023-07-04T14:36:46.998Z,90.56
2023-07-04T14:46:53.488Z,91.13
2023-07-04T14:51:55.099Z,91.03
2023-07-04T14:56:57.376Z,92.06
2023-07-04T15:01:59.464Z,89.39
2023-07-04T15:07:01.491Z,91.85
2023-07-04T15:12:03.269Z,92.48
2023-07-04T15:17:05.101Z,92.58
2023-07-04T15:22:06.840Z,90.81
2023-07-04T15:27:08.455Z,91.30
2023-07-04T15:32:10.156Z,89.71
2023-07-04T15:37:14.716Z,93.32
2023-07-04T15:42:16.591Z,93.36
2023-07-04T15:47:18.655Z,94.17
2023-07-04T15:52:20.375Z,93.00
2023-07-04T15:57:21.951Z,96.12
2023-07-04T16:02:23.605Z,95.08
2023-07-04T16:07:25.502Z,95.20
2023-07-04T16:12:27.166Z,93.78
2023-07-04T16:17:28.844Z,96.11
2023-07-04T16:22:30.435Z,92.70
2023-07-04T16:27:32.138Z,95.12
2023-07-04T16:32:33.893Z,96.79
2023-07-04T16:37:35.551Z,95.81
2023-07-04T16:42:37.220Z,94.70
2023-07-04T16:47:39.063Z,93.19
2023-07-04T16:52:40.780Z,94.99
2023-07-04T16:57:42.909Z,94.91
2023-07-04T17:02:44.667Z,95.14
2023-07-04T17:07:46.937Z,97.00
2023-07-04T17:12:48.636Z,95.45
2023-07-04T17:17:50.290Z,100.00
2023-07-04T17:22:52.029Z,98.18
2023-07-04T17:27:56.335Z,99.25
2023-07-04T17:32:57.970Z,98.06
2023-07-04T17:37:59.762Z,99.57
2023-07-04T17:43:01.275Z,100.00
2023-07-04T17:48:02.893Z,100.00
2023-07-04T17:53:05.332Z,100.00
2023-07-04T17:58:06.919Z,100.00
2023-07-04T18:03:08.478Z,100.00
2023-07-04T18:08:11.147Z,100.00
2023-07-04T18:13:12.753Z,100.00
2023-07-04T18:18:14.316Z,100.00
2023-07-04T18:23:16.226Z,100.00
2023-07-04T18:28:20.682Z,100.00
2023-07-04T18:33:22.414Z,100.00
2023-07-04T18:38:24.470Z,100.00
2023-07-04T18:43:26.020Z,100.00
2023-07-04T18:48:27.567Z,100.00
2023-07-04T18:53:29.108Z,100.00
2023-07-04T18:58:30.678Z,100.00
2023-07-04T19:03:32.354Z,100.00
2023-07-04T19:08:34.876Z,100.00
2023-07-04T19:13:36.774Z,100.00
2023-07-04T19:18:38.473Z,100.00
2023-07-04T19:23:40.101Z,100.00
2023-07-04T19:28:41.656Z,100.00
2023-07-04T19:33:43.400Z,100.00
2023-07-04T19:38:45.043Z,100.00
2023-07-04T19:43:46.746Z,100.00
2023-07-04T19:48:48.800Z,100.00
2023-07-04T19:53:51.823Z,100.00
2023-07-04T19:58:53.603Z,100.00
2023-07-04T20:03:56.115Z,100.00
2023-07-04T20:08:57.814Z,100.00
2023-07-04T20:13:59.730Z,100.00
2023-07-04T20:19:01.859Z,100.00
2023-07-04T20:24:03.823Z,100.00
2023-07-04T20:29:05.462Z,100.00
2023-07-04T20:34:07.382Z,100.00
2023-07-04T20:39:09.403Z,100.00
2023-07-04T20:44:11.101Z,100.00
2023-07-04T20:49:12.736Z,100.00
2023-07-04T20:54:15.168Z,100.00
2023-07-04T20:59:16.822Z,100.00
2023-07-04T21:04:19.143Z,100.00
2023-07-04T21:09:23.022Z,100.00
2023-07-04T21:14:25.320Z,100.00
2023-07-04T21:19:27.606Z,100.00
2023-07-04T21:24:29.308Z,100.00
2023-07-04T21:29:31.025Z,100.00
2023-07-04T21:34:34.744Z,100.00
2023-07-04T21:39:36.513Z,100.00
2023-07-04T21:44:38.238Z,100.00
2023-07-04T21:49:41.633Z,100.00
2023-07-04T21:54:45.090Z,100.00
2023-07-04T21:59:47.561Z,100.00
2023-07-04T22:04:49.240Z,100.00
2023-07-04T22:09:53.761Z,100.00
2023-07-04T22:14:55.424Z,100.00
2023-07-04T22:19:57.027Z,100.00
2023-07-04T22:24:59.095Z,100.00
2023-07-04T22:30:00.711Z,100.00
2023-07-04T22:35:02.421Z,100.00
2023-07-04T22:40:04.384Z,100.00
2023-07-04T22:45:07.124Z,100.00
2023-07-04T22:50:09.225Z,100.00
2023-07-04T22:55:10.839Z,100.00
2023-07-04T23:00:12.952Z,100.00
2023-07-04T23:05:15.447Z,100.00
2023-07-04T23:10:17.252Z,100.00
2023-07-04T23:15:20.188Z,100.00
2023-07-04T23:20:22.001Z,100.00
2023-07-04T23:25:23.830Z,100.00
2023-07-04T23:30:25.457Z,100.00
2023-07-04T23:35:27.059Z,100.00
2023-07-04T23:40:28.710Z,100.00
2023-07-04T23:45:30.341Z,100.00
2023-07-04T23:50:32.018Z,100.00
2023-07-04T23:55:33.632Z,100.00
